Time;durP1;ratioP1;P1;durP2;ratioP2;P2;SDS_P1;SDS_P2;PMS_P1;PMS_P2;Temp;Humidity;BMP_temperature;BMP_pressure;BME280_temperature;BME280_humidity;BME280_pressure;Samples;Min_cycle;Max_cycle;Signal;HPM_P1;HPM_P2
2022/11/29 00:01:14;;;;;;;19.63;13.50;;;7.80;99.90;;;;;;5009286;28;20550;-71
2022/11/29 00:03:40;;;;;;;19.47;12.70;;;7.80;99.90;;;;;;5017494;28;21007;-70
2022/11/29 00:06:09;;;;;;;19.63;12.30;;;7.90;99.90;;;;;;5021356;28;20456;-71
2022/11/29 00:08:35;;;;;;;22.60;13.43;;;7.80;99.90;;;;;;5016093;28;20209;-71
2022/11/29 00:11:11;;;;;;;21.47;14.17;;;7.90;99.90;;;;;;5022503;28;20488;-70
2022/11/29 00:13:37;;;;;;;23.37;12.70;;;7.90;99.90;;;;;;5018452;28;21042;-67
2022/11/29 00:16:08;;;;;;;16.93;11.80;;;7.90;99.90;;;;;;5020762;28;20447;-71
2022/11/29 00:18:34;;;;;;;18.00;11.83;;;7.90;99.90;;;;;;5017245;28;20510;-70
2022/11/29 00:21:04;;;;;;;21.90;12.33;;;7.90;99.90;;;;;;5001531;28;20467;-71
2022/11/29 00:23:29;;;;;;;18.20;11.67;;;7.90;99.90;;;;;;5016202;28;20223;-67
2022/11/29 00:26:05;;;;;;;16.27;11.27;;;7.90;99.90;;;;;;5018647;28;20453;-70
2022/11/29 00:28:30;;;;;;;15.90;11.10;;;7.90;99.90;;;;;;5002167;28;20257;-69
2022/11/29 00:30:56;;;;;;;12.77;9.27;;;7.90;99.90;;;;;;5003277;28;20453;-71
2022/11/29 00:33:22;;;;;;;15.73;10.17;;;7.90;99.90;;;;;;5013641;28;20252;-70
2022/11/29 00:35:47;;;;;;;13.33;9.30;;;7.90;99.90;;;;;;5019997;28;20278;-71
2022/11/29 00:38:13;;;;;;;17.80;10.73;;;7.90;99.90;;;;;;5019744;28;20205;-70
2022/11/29 00:40:39;;;;;;;16.17;10.40;;;7.90;99.90;;;;;;5017891;28;20607;-71
2022/11/29 00:43:04;;;;;;;14.43;10.80;;;7.90;99.90;;;;;;5020019;28;20246;-70
2022/11/29 00:45:30;;;;;;;13.13;9.57;;;7.90;99.90;;;;;;4996615;28;20268;-70
2022/11/29 00:47:55;;;;;;;16.00;10.67;;;7.90;99.90;;;;;;5020415;28;20689;-70
2022/11/29 00:50:21;;;;;;;20.63;11.37;;;7.90;99.90;;;;;;5020915;28;20308;-71
2022/11/29 00:52:47;;;;;;;22.77;12.00;;;7.90;99.90;;;;;;5025652;28;20221;-70
2022/11/29 00:55:13;;;;;;;19.47;11.90;;;7.90;99.90;;;;;;5025976;28;20295;-70
2022/11/29 00:57:38;;;;;;;20.50;13.17;;;7.90;99.90;;;;;;5023869;28;20221;-71
2022/11/29 01:00:05;;;;;;;24.20;12.93;;;7.90;99.90;;;;;;5016847;28;20217;-70
2022/11/29 01:02:30;;;;;;;20.97;12.17;;;7.90;99.90;;;;;;5016799;28;20236;-71
2022/11/29 01:04:56;;;;;;;18.33;12.43;;;7.90;99.90;;;;;;5012689;28;20482;-70
2022/11/29 01:07:21;;;;;;;20.03;12.67;;;7.90;99.90;;;;;;4992702;28;20241;-71
2022/11/29 01:09:47;;;;;;;19.40;11.73;;;7.80;99.90;;;;;;5023399;28;20244;-69
2022/11/29 01:12:13;;;;;;;21.30;12.10;;;7.90;99.90;;;;;;5022641;28;20224;-71
2022/11/29 01:14:38;;;;;;;15.50;11.10;;;7.90;99.90;;;;;;5017782;28;20283;-69
2022/11/29 01:17:04;;;;;;;18.20;11.70;;;7.90;99.90;;;;;;5020153;28;20228;-70
2022/11/29 01:19:30;;;;;;;18.63;11.30;;;7.90;99.90;;;;;;5009190;28;20252;-71
2022/11/29 01:21:55;;;;;;;18.47;12.60;;;7.80;99.90;;;;;;5028144;28;20655;-70
2022/11/29 01:24:21;;;;;;;16.93;10.67;;;7.90;99.90;;;;;;5022977;28;20235;-71
2022/11/29 01:26:47;;;;;;;17.53;10.63;;;7.90;99.90;;;;;;5028358;28;20216;-70
2022/11/29 01:29:13;;;;;;;17.80;10.90;;;7.90;99.90;;;;;;5019853;28;20213;-70
2022/11/29 01:31:39;;;;;;;17.43;11.17;;;7.80;99.90;;;;;;5018830;28;20216;-70
2022/11/29 01:34:06;;;;;;;22.27;12.63;;;7.90;99.90;;;;;;5019708;28;20463;-70
2022/11/29 01:36:32;;;;;;;13.27;10.03;;;7.80;99.90;;;;;;5019089;28;20267;-71
2022/11/29 01:39:00;;;;;;;15.70;10.27;;;7.80;99.90;;;;;;5024107;28;20519;-70
2022/11/29 01:41:29;;;;;;;17.27;11.23;;;7.90;99.90;;;;;;5024846;28;20485;-70
2022/11/29 01:44:03;;;;;;;16.27;10.70;;;7.80;99.90;;;;;;5019911;28;20528;-70
2022/11/29 01:46:32;;;;;;;17.60;11.80;;;7.90;99.90;;;;;;5000960;28;20452;-70
2022/11/29 01:49:04;;;;;;;16.70;10.53;;;7.90;99.90;;;;;;5016341;28;20451;-71
2022/11/29 01:51:31;;;;;;;15.20;10.27;;;7.90;99.90;;;;;;5027457;28;20484;-70
2022/11/29 01:53:57;;;;;;;13.90;10.27;;;7.90;99.90;;;;;;5020184;28;20459;-70
2022/11/29 01:56:24;;;;;;;16.27;9.70;;;7.90;99.90;;;;;;5006006;28;20525;-70
2022/11/29 01:58:50;;;;;;;13.67;8.83;;;7.90;99.90;;;;;;5008982;28;20462;-70
2022/11/29 02:01:16;;;;;;;16.07;9.20;;;7.90;99.90;;;;;;5021816;28;20464;-70
2022/11/29 02:03:42;;;;;;;14.30;10.13;;;7.90;99.90;;;;;;5021387;28;20830;-71
2022/11/29 02:06:08;;;;;;;14.77;9.97;;;7.90;99.90;;;;;;5010000;28;20561;-71
2022/11/29 02:08:42;;;;;;;13.70;10.00;;;7.90;99.90;;;;;;5014440;28;20233;-70
2022/11/29 02:11:13;;;;;;;12.77;9.30;;;7.80;99.90;;;;;;5027249;28;20228;-71
2022/11/29 02:13:52;;;;;;;9.37;8.00;;;7.80;99.90;;;;;;5020920;28;20447;-70
2022/11/29 02:16:36;;;;;;;13.20;9.63;;;7.80;99.90;;;;;;5016591;28;20467;-71
2022/11/29 02:19:32;;;;;;;9.30;7.73;;;7.80;99.90;;;;;;5019015;28;20443;-69
2022/11/29 02:22:05;;;;;;;10.60;8.40;;;7.80;99.90;;;;;;5017930;28;20547;-70
2022/11/29 02:24:51;;;;;;;10.37;7.80;;;7.80;99.90;;;;;;5015606;28;21057;-70
2022/11/29 02:27:26;;;;;;;10.13;8.00;;;7.80;99.90;;;;;;5016326;28;20495;-71
2022/11/29 02:30:00;;;;;;;11.13;8.50;;;7.80;99.90;;;;;;5022091;28;20447;-71
2022/11/29 02:32:37;;;;;;;11.73;8.47;;;7.80;99.90;;;;;;5000128;28;20883;-71
2022/11/29 02:35:34;;;;;;;10.23;7.53;;;7.80;99.90;;;;;;5021571;28;20927;-72
2022/11/29 02:38:20;;;;;;;9.13;8.10;;;7.80;99.90;;;;;;5020925;28;20872;-71
2022/11/29 02:40:49;;;;;;;8.00;7.20;;;7.90;99.90;;;;;;5017538;28;20983;-72
2022/11/29 02:43:30;;;;;;;9.37;7.23;;;7.80;99.90;;;;;;5005923;28;20824;-71
2022/11/29 02:46:11;;;;;;;9.20;7.70;;;7.80;99.90;;;;;;5019055;28;20463;-71
2022/11/29 02:49:11;;;;;;;7.17;6.43;;;7.80;99.90;;;;;;5018167;28;20447;-71
2022/11/29 02:52:02;;;;;;;9.83;7.30;;;7.90;99.90;;;;;;5008908;28;20456;-71
2022/11/29 02:54:32;;;;;;;7.70;6.90;;;7.90;99.90;;;;;;5017959;28;20484;-71
2022/11/29 02:57:03;;;;;;;8.37;7.47;;;7.90;99.90;;;;;;5005849;28;20571;-71
2022/11/29 02:59:51;;;;;;;10.30;7.90;;;7.90;99.90;;;;;;4993445;28;20471;-71
2022/11/29 03:02:32;;;;;;;10.50;8.03;;;7.80;99.90;;;;;;5023092;28;20903;-71
2022/11/29 03:05:31;;;;;;;8.20;6.87;;;7.80;99.90;;;;;;5011074;28;20465;-71
2022/11/29 03:07:57;;;;;;;8.37;6.90;;;7.80;99.90;;;;;;5032782;28;20458;-71
2022/11/29 03:10:26;;;;;;;7.90;6.80;;;7.80;99.90;;;;;;4995259;28;20551;-71
2022/11/29 03:12:53;;;;;;;9.00;7.00;;;7.80;99.90;;;;;;5018908;28;20806;-71
2022/11/29 03:15:37;;;;;;;10.27;7.60;;;7.80;99.90;;;;;;4997993;28;20472;-71
2022/11/29 03:18:27;;;;;;;8.30;6.93;;;7.80;99.90;;;;;;5016533;28;20472;-71
2022/11/29 03:21:13;;;;;;;9.93;7.53;;;7.80;99.90;;;;;;5024102;28;20478;-71
2022/11/29 03:24:05;;;;;;;8.07;7.20;;;7.80;99.90;;;;;;4995799;28;20470;-69
2022/11/29 03:26:34;;;;;;;7.63;6.87;;;7.90;99.90;;;;;;5023053;28;20477;-71
2022/11/29 03:29:12;;;;;;;8.60;7.70;;;7.80;99.90;;;;;;5018271;28;20525;-71
2022/11/29 03:32:02;;;;;;;7.30;6.47;;;7.80;99.90;;;;;;5022639;28;20439;-72
2022/11/29 03:34:36;;;;;;;8.10;7.10;;;7.80;99.90;;;;;;5009554;28;20459;-72
2022/11/29 03:37:14;;;;;;;9.63;7.63;;;7.80;99.90;;;;;;5002665;28;20447;-70
2022/11/29 03:40:03;;;;;;;6.87;6.17;;;7.80;99.90;;;;;;5034730;28;20455;-70
2022/11/29 03:42:44;;;;;;;9.20;6.77;;;7.80;99.90;;;;;;5022239;28;20964;-70
2022/11/29 03:45:15;;;;;;;9.97;7.87;;;7.80;99.90;;;;;;5020818;28;21051;-71
2022/11/29 03:47:55;;;;;;;8.73;7.60;;;7.80;99.90;;;;;;5018409;28;20498;-71
2022/11/29 03:50:27;;;;;;;10.23;8.40;;;7.80;99.90;;;;;;5016949;28;20506;-71
2022/11/29 03:52:59;;;;;;;8.20;6.57;;;7.80;99.90;;;;;;5016158;28;20456;-71
2022/11/29 03:55:57;;;;;;;7.37;6.40;;;7.80;99.90;;;;;;5014512;28;20459;-71
2022/11/29 03:58:29;;;;;;;10.53;7.73;;;7.80;99.90;;;;;;5011709;28;20460;-71
2022/11/29 04:01:14;;;;;;;9.10;6.93;;;7.80;99.90;;;;;;5034411;28;21056;-71
2022/11/29 04:04:11;;;;;;;8.90;6.60;;;7.80;99.90;;;;;;5006076;28;20462;-70
2022/11/29 04:07:05;;;;;;;7.87;6.67;;;7.80;99.90;;;;;;5016649;28;20987;-71
2022/11/29 04:10:08;;;;;;;8.80;7.37;;;7.70;99.90;;;;;;5014152;28;20472;-71
2022/11/29 04:12:43;;;;;;;8.30;6.83;;;7.60;99.90;;;;;;5021297;28;20460;-71
2022/11/29 04:15:23;;;;;;;9.20;7.53;;;7.60;99.90;;;;;;5022741;28;20457;-71
2022/11/29 04:18:44;;;;;;;8.20;7.40;;;7.60;99.90;;;;;;5019323;28;20843;-71
2022/11/29 04:21:30;;;;;;;7.93;6.30;;;7.60;99.90;;;;;;5017666;28;20452;-71
2022/11/29 04:24:33;;;;;;;11.60;6.33;;;7.60;99.90;;;;;;5020987;28;20979;-71
2022/11/29 04:27:18;;;;;;;6.40;5.73;;;7.60;99.90;;;;;;5029264;28;20466;-71
2022/11/29 04:29:49;;;;;;;9.33;6.80;;;7.70;99.90;;;;;;5025420;28;20478;-71
2022/11/29 04:32:40;;;;;;;8.97;7.00;;;7.70;99.90;;;;;;5018415;28;20463;-71
2022/11/29 04:35:24;;;;;;;10.30;7.50;;;7.70;99.90;;;;;;5003048;28;20455;-71
2022/11/29 04:38:25;;;;;;;9.00;5.73;;;7.70;99.90;;;;;;5016054;28;20460;-70
2022/11/29 04:41:18;;;;;;;9.07;7.23;;;7.70;99.90;;;;;;5012735;28;20856;-70
2022/11/29 04:44:06;;;;;;;9.13;7.07;;;7.60;99.90;;;;;;5013611;28;20859;-71
2022/11/29 04:47:18;;;;;;;8.60;6.70;;;7.60;99.90;;;;;;5020762;28;20459;-70
2022/11/29 04:49:58;;;;;;;11.27;7.00;;;7.70;99.90;;;;;;5021529;28;20521;-72
2022/11/29 04:52:48;;;;;;;9.00;6.70;;;7.70;99.90;;;;;;5019292;28;21060;-71
2022/11/29 04:55:28;;;;;;;10.10;7.37;;;7.70;99.90;;;;;;5018054;28;20477;-70
2022/11/29 04:58:03;;;;;;;8.53;6.10;;;7.70;99.90;;;;;;5016018;28;20969;-71
2022/11/29 05:00:36;;;;;;;6.83;5.77;;;7.70;99.90;;;;;;5019326;28;20486;-71
2022/11/29 05:03:13;;;;;;;9.80;7.40;;;7.70;99.90;;;;;;5018131;28;20456;-71
2022/11/29 05:05:42;;;;;;;6.40;5.80;;;7.70;99.90;;;;;;5014457;28;20538;-71
2022/11/29 05:08:31;;;;;;;8.57;6.43;;;7.70;99.90;;;;;;5002423;28;20528;-71
2022/11/29 05:11:30;;;;;;;6.80;5.83;;;7.70;99.90;;;;;;5020589;28;20456;-71
2022/11/29 05:14:30;;;;;;;9.83;7.40;;;7.70;99.90;;;;;;5016531;28;20544;-71
2022/11/29 05:17:10;;;;;;;7.30;6.10;;;7.70;99.90;;;;;;5019599;28;20463;-71
2022/11/29 05:19:47;;;;;;;8.63;7.07;;;7.70;99.90;;;;;;5018689;28;20467;-71
2022/11/29 05:22:22;;;;;;;7.67;6.90;;;7.70;99.90;;;;;;5004231;28;20609;-71
2022/11/29 05:25:10;;;;;;;7.13;6.50;;;7.70;99.90;;;;;;5006236;28;21088;-72
2022/11/29 05:27:54;;;;;;;7.50;6.30;;;7.70;99.90;;;;;;5019052;28;20451;-71
2022/11/29 05:30:22;;;;;;;10.57;7.70;;;7.70;99.90;;;;;;5013271;28;20462;-71
2022/11/29 05:33:35;;;;;;;9.97;7.93;;;7.70;99.90;;;;;;5003500;28;20467;-70
2022/11/29 05:36:01;;;;;;;8.23;7.30;;;7.60;99.90;;;;;;5013329;28;20475;-70
2022/11/29 05:38:32;;;;;;;11.40;7.80;;;7.60;99.90;;;;;;5007947;28;20464;-71
2022/11/29 05:41:13;;;;;;;9.03;7.30;;;7.60;99.90;;;;;;5026502;28;20209;-71
2022/11/29 05:43:45;;;;;;;9.07;7.50;;;7.60;99.90;;;;;;5017097;28;20546;-70
2022/11/29 05:46:31;;;;;;;10.63;7.10;;;7.60;99.90;;;;;;4994544;28;20466;-70
2022/11/29 05:49:47;;;;;;;8.90;6.97;;;7.70;99.90;;;;;;5017535;28;20513;-72
2022/11/29 05:52:42;;;;;;;10.70;6.80;;;7.60;99.90;;;;;;5012491;28;20451;-70
2022/11/29 05:55:36;;;;;;;9.90;7.37;;;7.60;99.90;;;;;;5020636;28;20455;-71
2022/11/29 05:58:13;;;;;;;8.50;6.90;;;7.60;99.90;;;;;;5030286;28;20829;-71
2022/11/29 06:00:55;;;;;;;9.50;7.97;;;7.60;99.90;;;;;;5013457;28;20448;-70
2022/11/29 06:03:50;;;;;;;9.10;7.90;;;7.60;99.90;;;;;;5018435;28;20512;-71
2022/11/29 06:06:33;;;;;;;9.40;8.20;;;7.60;99.90;;;;;;5021152;28;20455;-70
2022/11/29 06:09:11;;;;;;;13.40;8.77;;;7.60;99.90;;;;;;5006372;28;20451;-71
2022/11/29 06:12:15;;;;;;;8.93;7.50;;;7.60;99.90;;;;;;5028130;28;20493;-70
2022/11/29 06:15:09;;;;;;;13.13;7.10;;;7.60;99.90;;;;;;5034501;28;20457;-70
2022/11/29 06:17:43;;;;;;;10.30;7.90;;;7.50;99.90;;;;;;5035840;28;20520;-71
2022/11/29 06:20:41;;;;;;;9.23;7.20;;;7.60;99.90;;;;;;5025862;28;20977;-71
2022/11/29 06:23:30;;;;;;;12.30;8.13;;;7.60;99.90;;;;;;5001096;28;20485;-71
2022/11/29 06:26:07;;;;;;;12.37;8.67;;;7.60;99.90;;;;;;5009919;28;20474;-71
2022/11/29 06:28:40;;;;;;;15.17;11.33;;;7.60;99.90;;;;;;5011873;28;20471;-72
2022/11/29 06:31:30;;;;;;;13.80;10.17;;;7.60;99.90;;;;;;5018382;28;20447;-71
2022/11/29 06:34:08;;;;;;;12.17;8.93;;;7.60;99.90;;;;;;5012938;28;20456;-71
2022/11/29 06:36:45;;;;;;;11.63;8.80;;;7.60;99.90;;;;;;5013794;28;20833;-71
2022/11/29 06:39:11;;;;;;;10.10;8.63;;;7.60;99.90;;;;;;5019306;28;20463;-71
2022/11/29 06:41:37;;;;;;;10.60;8.53;;;7.60;99.90;;;;;;5007483;28;20603;-71
2022/11/29 06:44:04;;;;;;;11.17;8.30;;;7.60;99.90;;;;;;5013290;28;20341;-71
2022/11/29 06:46:47;;;;;;;13.77;9.50;;;7.60;99.90;;;;;;5026917;28;20217;-71
2022/11/29 06:49:21;;;;;;;11.60;8.73;;;7.60;99.90;;;;;;5016135;28;20448;-71
2022/11/29 06:52:01;;;;;;;12.63;8.83;;;7.60;99.90;;;;;;5020473;28;20439;-71
2022/11/29 06:54:54;;;;;;;13.80;7.93;;;7.60;99.90;;;;;;5011911;28;20460;-71
2022/11/29 06:57:41;;;;;;;10.57;7.60;;;7.60;99.90;;;;;;5026256;28;20476;-71
2022/11/29 07:00:18;;;;;;;20.20;11.10;;;7.60;99.90;;;;;;5027105;28;20538;-71
2022/11/29 07:02:46;;;;;;;20.97;11.50;;;7.60;99.90;;;;;;5012812;28;20509;-71
2022/11/29 07:05:12;;;;;;;17.63;10.70;;;7.60;99.90;;;;;;5027148;28;20542;-71
2022/11/29 07:07:38;;;;;;;12.30;7.80;;;7.60;99.90;;;;;;5005339;28;20571;-71
2022/11/29 07:10:05;;;;;;;14.63;8.67;;;7.60;99.90;;;;;;5009344;28;20213;-71
2022/11/29 07:12:31;;;;;;;15.53;8.40;;;7.70;99.90;;;;;;5016814;28;20517;-71
2022/11/29 07:14:57;;;;;;;11.93;6.97;;;7.70;99.90;;;;;;5026417;28;20452;-71
2022/11/29 07:17:38;;;;;;;11.40;7.13;;;7.70;99.90;;;;;;5004281;28;20958;-71
2022/11/29 07:20:07;;;;;;;11.33;6.97;;;7.70;99.90;;;;;;5012942;28;20479;-71
2022/11/29 07:23:03;;;;;;;7.70;5.70;;;7.70;99.90;;;;;;5028130;28;20464;-72
2022/11/29 07:25:45;;;;;;;11.23;6.70;;;7.70;99.90;;;;;;5031155;28;20466;-72
2022/11/29 07:28:42;;;;;;;9.47;7.07;;;7.70;99.90;;;;;;5017230;28;20554;-71
2022/11/29 07:31:28;;;;;;;8.53;6.20;;;7.70;99.90;;;;;;5018394;28;20473;-71
2022/11/29 07:34:18;;;;;;;12.27;6.90;;;7.70;99.90;;;;;;5019525;28;20829;-71
2022/11/29 07:36:58;;;;;;;10.13;6.47;;;7.70;99.90;;;;;;5026533;28;20455;-72
2022/11/29 07:39:39;;;;;;;9.70;6.37;;;7.70;99.90;;;;;;5026004;28;20460;-71
2022/11/29 07:42:28;;;;;;;9.03;6.27;;;7.70;99.90;;;;;;5010128;28;20467;-72
2022/11/29 07:45:13;;;;;;;14.53;7.97;;;7.70;99.90;;;;;;5019153;28;20469;-72
2022/11/29 07:47:38;;;;;;;10.00;6.97;;;7.70;99.90;;;;;;5023852;28;20443;-71
2022/11/29 07:50:04;;;;;;;14.80;7.07;;;7.70;99.90;;;;;;5012717;28;20460;-71
2022/11/29 07:52:30;;;;;;;11.40;6.93;;;7.80;99.90;;;;;;5024604;28;20603;-72
2022/11/29 07:54:56;;;;;;;16.70;7.43;;;7.70;99.90;;;;;;5019681;28;20502;-71
2022/11/29 07:57:21;;;;;;;13.53;7.30;;;7.80;99.90;;;;;;5013304;28;20225;-71
2022/11/29 07:59:47;;;;;;;17.20;7.30;;;7.70;99.90;;;;;;5025669;28;20688;-72
2022/11/29 08:02:13;;;;;;;11.13;7.70;;;7.80;99.90;;;;;;5025417;28;20244;-71
2022/11/29 08:04:43;;;;;;;11.70;6.60;;;7.80;99.90;;;;;;5006937;28;20237;-72
2022/11/29 08:07:09;;;;;;;14.77;7.57;;;7.80;99.90;;;;;;5003658;28;20217;-71
2022/11/29 08:09:34;;;;;;;16.20;8.70;;;7.80;99.90;;;;;;5027074;28;20925;-71
2022/11/29 08:12:00;;;;;;;16.90;8.23;;;7.80;99.90;;;;;;5016487;28;20231;-71
2022/11/29 08:14:29;;;;;;;12.53;8.40;;;7.80;99.90;;;;;;5019235;28;20213;-71
2022/11/29 08:16:55;;;;;;;13.70;7.50;;;7.80;99.90;;;;;;5028877;28;20212;-71
2022/11/29 08:19:20;;;;;;;12.53;6.90;;;7.80;99.90;;;;;;5013139;28;20466;-71
2022/11/29 08:21:47;;;;;;;12.43;7.00;;;7.80;99.90;;;;;;5008430;28;20220;-71
2022/11/29 08:24:12;;;;;;;11.13;7.80;;;7.80;99.90;;;;;;5025514;28;20225;-71
2022/11/29 08:26:38;;;;;;;14.03;7.97;;;7.90;99.90;;;;;;5024682;28;20443;-71
2022/11/29 08:29:04;;;;;;;12.30;7.57;;;7.90;99.90;;;;;;5002104;28;20275;-71
2022/11/29 08:31:30;;;;;;;12.67;8.10;;;7.90;99.90;;;;;;5019559;28;20971;-71
2022/11/29 08:33:55;;;;;;;13.47;7.70;;;7.90;99.90;;;;;;5010677;28;20209;-71
2022/11/29 08:36:21;;;;;;;12.93;8.10;;;7.90;99.90;;;;;;5018740;28;20604;-71
2022/11/29 08:38:47;;;;;;;13.90;7.90;;;7.80;99.90;;;;;;5015518;28;20221;-72
2022/11/29 08:41:15;;;;;;;14.57;7.77;;;7.90;99.90;;;;;;5025564;28;20219;-71
2022/11/29 08:43:41;;;;;;;16.73;7.90;;;7.90;99.90;;;;;;5023466;28;20220;-69
2022/11/29 08:46:07;;;;;;;11.90;7.03;;;7.90;99.90;;;;;;5007970;28;20488;-71
2022/11/29 08:48:34;;;;;;;15.73;7.20;;;7.90;99.90;;;;;;4999032;28;20948;-71
2022/11/29 08:51:00;;;;;;;15.43;7.17;;;7.90;99.90;;;;;;5027340;28;20486;-71
2022/11/29 08:53:42;;;;;;;14.97;7.80;;;7.90;99.90;;;;;;5017342;28;20459;-71
2022/11/29 08:56:17;;;;;;;10.40;6.80;;;7.90;99.90;;;;;;5011695;28;20455;-71
2022/11/29 08:58:44;;;;;;;13.33;7.70;;;7.90;99.90;;;;;;5026389;28;20447;-71
2022/11/29 09:01:18;;;;;;;9.50;6.70;;;7.90;99.90;;;;;;5024111;28;20458;-72
2022/11/29 09:04:01;;;;;;;11.60;6.70;;;7.90;99.90;;;;;;5019886;28;20487;-72
2022/11/29 09:06:32;;;;;;;11.67;7.23;;;7.90;99.90;;;;;;5026835;28;20822;-71
2022/11/29 09:08:59;;;;;;;12.23;7.30;;;8.00;99.90;;;;;;5008084;28;20518;-72
2022/11/29 09:11:26;;;;;;;12.33;7.30;;;8.00;99.90;;;;;;5013169;28;20475;-71
2022/11/29 09:13:56;;;;;;;13.17;6.77;;;8.00;99.90;;;;;;5026241;28;20460;-71
2022/11/29 09:16:25;;;;;;;10.00;6.40;;;8.00;99.90;;;;;;5013890;28;20459;-72
2022/11/29 09:18:54;;;;;;;12.57;7.60;;;8.00;99.90;;;;;;5017428;28;20439;-70
2022/11/29 09:21:23;;;;;;;12.50;7.40;;;8.00;99.90;;;;;;5017680;28;20449;-71
2022/11/29 09:23:49;;;;;;;13.60;7.20;;;8.00;99.90;;;;;;5020723;28;20565;-72
2022/11/29 09:26:18;;;;;;;10.63;7.47;;;8.00;99.90;;;;;;5023673;28;20463;-71
2022/11/29 09:28:44;;;;;;;15.17;7.00;;;8.00;99.90;;;;;;5008435;28;20473;-71
2022/11/29 09:31:13;;;;;;;10.70;5.70;;;8.00;99.90;;;;;;5026292;28;20455;-71
2022/11/29 09:33:39;;;;;;;9.33;6.53;;;8.00;99.90;;;;;;5022972;28;20454;-72
2022/11/29 09:36:06;;;;;;;12.00;6.67;;;8.00;99.90;;;;;;5028631;28;20461;-71
2022/11/29 09:38:33;;;;;;;17.83;6.63;;;8.00;99.90;;;;;;5020968;28;20534;-70
2022/11/29 09:41:20;;;;;;;17.07;5.97;;;8.00;99.90;;;;;;5001366;28;20535;-71
2022/11/29 09:44:28;;;;;;;9.17;5.80;;;8.00;99.90;;;;;;5037226;28;20470;-71
2022/11/29 09:47:14;;;;;;;10.47;6.87;;;8.10;99.90;;;;;;5035922;28;20457;-71
2022/11/29 09:50:02;;;;;;;7.97;5.40;;;8.10;99.90;;;;;;5031734;28;20977;-71
2022/11/29 09:52:42;;;;;;;11.10;5.73;;;8.10;99.90;;;;;;5028220;28;20463;-71
2022/11/29 09:55:14;;;;;;;12.13;7.07;;;8.10;99.90;;;;;;5016987;28;20522;-71
2022/11/29 09:57:42;;;;;;;9.53;5.40;;;8.10;99.90;;;;;;5023725;28;20903;-70
2022/11/29 10:00:18;;;;;;;9.80;5.77;;;8.10;99.90;;;;;;5022466;28;20482;-71
2022/11/29 10:03:25;;;;;;;9.87;6.77;;;8.10;99.90;;;;;;5022723;28;20454;-71
2022/11/29 10:06:13;;;;;;;9.63;5.97;;;8.10;99.90;;;;;;5044975;28;20458;-71
2022/11/29 10:08:45;;;;;;;11.33;6.40;;;8.10;99.90;;;;;;5041114;28;20471;-72
2022/11/29 10:11:37;;;;;;;8.10;5.60;;;8.10;99.90;;;;;;5024514;28;20460;-71
2022/11/29 10:14:19;;;;;;;12.67;6.23;;;8.10;99.90;;;;;;5024548;28;20458;-71
2022/11/29 10:16:51;;;;;;;8.83;6.20;;;8.10;99.90;;;;;;5022948;28;20444;-72
2022/11/29 10:19:41;;;;;;;14.43;6.53;;;8.10;99.90;;;;;;5011337;28;20483;-71
2022/11/29 10:22:26;;;;;;;14.73;7.17;;;8.10;99.90;;;;;;5024170;28;20459;-71
2022/11/29 10:24:58;;;;;;;18.20;8.87;;;8.20;99.90;;;;;;5028677;28;20471;-71
2022/11/29 10:27:27;;;;;;;16.13;8.00;;;8.20;99.90;;;;;;5013337;28;20455;-72
2022/11/29 10:29:53;;;;;;;17.90;10.77;;;8.20;99.90;;;;;;5022918;28;20471;-70
2022/11/29 10:32:22;;;;;;;27.70;11.90;;;8.20;99.90;;;;;;5020326;28;20480;-71
2022/11/29 10:34:49;;;;;;;33.40;14.77;;;8.20;99.90;;;;;;5025720;28;20454;-71
2022/11/29 10:37:22;;;;;;;23.43;14.37;;;8.20;99.90;;;;;;5025109;28;20482;-72
2022/11/29 10:39:48;;;;;;;53.23;30.20;;;8.20;99.90;;;;;;5021058;28;20455;-71
2022/11/29 10:45:15;;;;;;;45.77;24.60;;;8.20;99.90;;;;;;5015972;28;20244;-70
2022/11/29 10:47:42;;;;;;;55.80;28.60;;;8.20;99.90;;;;;;5025281;28;20508;-71
2022/11/29 10:50:17;;;;;;;33.97;20.70;;;8.20;99.90;;;;;;5026073;28;20451;-71
2022/11/29 10:52:43;;;;;;;22.10;14.27;;;8.20;99.90;;;;;;5008852;28;20993;-70
2022/11/29 10:55:13;;;;;;;21.03;10.83;;;8.20;99.90;;;;;;5010459;28;20448;-70
2022/11/29 10:58:18;;;;;;;15.17;8.60;;;8.20;99.90;;;;;;5025409;28;20287;-71
2022/11/29 11:00:49;;;;;;;16.13;8.20;;;8.30;99.90;;;;;;5017545;28;20455;-71
2022/11/29 11:03:21;;;;;;;13.07;8.43;;;8.30;99.90;;;;;;5013921;28;20823;-71
2022/11/29 11:06:04;;;;;;;9.77;7.77;;;8.30;99.90;;;;;;5030495;28;20817;-71
2022/11/29 11:08:31;;;;;;;10.97;7.80;;;8.30;99.90;;;;;;5022649;28;20456;-70
2022/11/29 11:10:58;;;;;;;20.67;8.77;;;8.30;99.90;;;;;;5015733;28;20491;-72
2022/11/29 11:13:27;;;;;;;13.80;8.20;;;8.30;99.90;;;;;;5018487;28;20485;-71
2022/11/29 11:16:08;;;;;;;9.57;7.33;;;8.30;99.90;;;;;;5028324;28;20453;-71
2022/11/29 11:18:35;;;;;;;12.67;8.10;;;8.40;99.90;;;;;;5028195;28;20474;-71
2022/11/29 11:21:01;;;;;;;14.40;8.03;;;8.40;99.90;;;;;;5007247;28;20455;-70
2022/11/29 11:23:38;;;;;;;15.97;7.90;;;8.40;99.90;;;;;;5027620;28;20486;-70
2022/11/29 11:26:12;;;;;;;16.17;8.37;;;8.40;99.90;;;;;;5026853;28;20548;-70
2022/11/29 11:28:40;;;;;;;12.90;6.93;;;8.40;99.90;;;;;;5020524;28;20460;-71
2022/11/29 11:31:09;;;;;;;11.47;7.27;;;8.40;99.90;;;;;;5022861;28;20456;-71
2022/11/29 11:33:43;;;;;;;12.40;7.50;;;8.40;99.90;;;;;;5028666;28;20467;-71
2022/11/29 11:36:18;;;;;;;12.00;7.10;;;8.50;99.90;;;;;;5007554;28;20559;-70
2022/11/29 11:39:11;;;;;;;11.10;6.80;;;8.50;99.90;;;;;;5005057;28;20618;-71
2022/11/29 11:44:48;;;;;;;13.20;8.20;;;8.50;99.90;;;;;;5016637;28;20983;-71
2022/11/29 11:47:35;;;;;;;11.67;7.63;;;8.50;99.90;;;;;;5022295;28;20447;-71
2022/11/29 11:50:01;;;;;;;12.30;7.33;;;8.50;99.90;;;;;;5008125;28;20449;-70
2022/11/29 11:52:40;;;;;;;9.33;5.93;;;8.50;99.90;;;;;;5029387;28;20456;-71
2022/11/29 11:55:20;;;;;;;9.90;6.90;;;8.50;99.90;;;;;;5028457;28;20264;-71
2022/11/29 11:58:04;;;;;;;9.90;6.43;;;8.60;99.90;;;;;;5011506;28;20449;-72
2022/11/29 12:00:50;;;;;;;9.43;6.30;;;8.60;99.90;;;;;;5020602;28;20447;-71
2022/11/29 12:03:34;;;;;;;13.37;7.43;;;8.60;99.90;;;;;;5012105;28;20491;-71
2022/11/29 12:06:12;;;;;;;11.20;7.40;;;8.60;99.90;;;;;;5011320;28;20809;-71
2022/11/29 12:08:38;;;;;;;20.50;7.77;;;8.60;99.90;;;;;;5018171;28;20459;-71
2022/11/29 12:11:09;;;;;;;12.70;6.70;;;8.60;99.90;;;;;;5023921;28;20474;-71
2022/11/29 12:13:41;;;;;;;10.87;6.97;;;8.70;99.90;;;;;;5030777;28;21119;-71
2022/11/29 12:16:13;;;;;;;11.03;6.37;;;8.70;99.90;;;;;;5036082;28;20455;-71
2022/11/29 12:18:47;;;;;;;12.00;6.87;;;8.70;99.90;;;;;;5022628;28;20446;-71
2022/11/29 12:21:15;;;;;;;11.97;7.10;;;8.70;99.90;;;;;;5006845;28;20479;-71
2022/11/29 12:24:11;;;;;;;13.00;7.50;;;8.70;99.90;;;;;;5024830;28;20448;-71
2022/11/29 12:26:39;;;;;;;13.80;7.27;;;8.70;99.90;;;;;;5024802;28;20807;-71
2022/11/29 12:29:16;;;;;;;14.67;7.87;;;8.80;99.90;;;;;;5015901;28;20483;-72
2022/11/29 12:32:12;;;;;;;11.07;7.63;;;8.80;99.90;;;;;;5017827;28;20451;-70
2022/11/29 12:34:54;;;;;;;12.03;7.37;;;8.80;99.90;;;;;;5013106;28;20486;-72
2022/11/29 12:37:26;;;;;;;11.63;7.60;;;8.80;99.90;;;;;;5019277;28;20521;-71
2022/11/29 12:40:10;;;;;;;12.70;7.23;;;8.80;99.90;;;;;;5025152;28;20877;-70
2022/11/29 12:43:02;;;;;;;12.80;7.77;;;8.80;99.90;;;;;;5024514;28;20522;-71
2022/11/29 12:45:53;;;;;;;11.47;9.00;;;8.80;99.90;;;;;;5023227;28;20563;-72
2022/11/29 12:48:29;;;;;;;14.60;11.33;;;8.90;99.90;;;;;;5011382;28;20460;-71
2022/11/29 12:51:12;;;;;;;17.27;12.50;;;8.90;99.90;;;;;;5028030;28;20453;-72
2022/11/29 12:54:18;;;;;;;13.77;11.63;;;8.90;99.90;;;;;;5011095;28;20513;-72
2022/11/29 12:57:03;;;;;;;14.23;10.30;;;8.90;99.90;;;;;;5025134;28;20521;-72
2022/11/29 12:59:47;;;;;;;19.47;9.83;;;8.90;99.90;;;;;;5028148;28;20475;-71
2022/11/29 13:02:20;;;;;;;13.67;8.67;;;8.90;99.90;;;;;;5021422;28;20541;-72
2022/11/29 13:05:08;;;;;;;14.13;7.87;;;8.90;99.90;;;;;;5014740;28;20464;-71
2022/11/29 13:07:42;;;;;;;14.53;8.13;;;8.90;99.90;;;;;;5023316;28;20459;-71
2022/11/29 13:10:39;;;;;;;14.53;8.07;;;9.00;99.90;;;;;;5019351;28;20451;-71
2022/11/29 13:13:14;;;;;;;11.10;7.40;;;9.00;99.90;;;;;;5021867;28;20521;-71
2022/11/29 13:16:10;;;;;;;10.80;7.20;;;9.00;99.90;;;;;;5015314;28;20452;-70
2022/11/29 13:18:46;;;;;;;9.50;6.90;;;9.00;99.90;;;;;;5008199;28;20452;-71
2022/11/29 13:21:28;;;;;;;9.53;6.87;;;9.00;99.90;;;;;;5008073;28;20455;-72
2022/11/29 13:24:02;;;;;;;11.87;7.90;;;9.00;99.90;;;;;;5017898;28;20459;-71
2022/11/29 13:26:28;;;;;;;11.70;7.30;;;9.00;99.90;;;;;;5000080;28;20602;-72
2022/11/29 13:28:54;;;;;;;10.20;7.40;;;9.00;99.90;;;;;;5015968;28;20442;-71
2022/11/29 13:31:22;;;;;;;12.80;7.70;;;9.00;99.90;;;;;;5007585;28;20567;-72
2022/11/29 13:34:06;;;;;;;10.47;7.50;;;9.00;99.90;;;;;;5025794;28;20950;-72
2022/11/29 13:36:51;;;;;;;11.50;7.60;;;9.00;99.90;;;;;;5022954;28;20466;-72
2022/11/29 13:39:39;;;;;;;10.83;7.70;;;9.10;99.90;;;;;;5024218;28;20455;-72
2022/11/29 13:42:23;;;;;;;13.63;8.07;;;9.10;99.90;;;;;;4996992;28;20483;-71